createdAt,value
2018-07-12T00:00:15.365Z,15.60
2018-07-12T00:02:43.973Z,15.60
2018-07-12T00:05:12.751Z,15.60
2018-07-12T00:07:42.245Z,15.60
2018-07-12T00:10:10.906Z,15.60
2018-07-12T00:12:39.477Z,15.60
2018-07-12T00:15:08.442Z,15.60
2018-07-12T00:17:37.041Z,15.60
2018-07-12T00:20:05.734Z,15.60
2018-07-12T00:22:34.533Z,15.60
2018-07-12T00:25:03.569Z,15.40
2018-07-12T00:27:32.309Z,15.60
2018-07-12T00:30:00.921Z,15.60
2018-07-12T00:32:29.825Z,15.60
2018-07-12T00:34:58.781Z,15.50
2018-07-12T00:37:27.708Z,15.60
2018-07-12T00:39:56.556Z,15.60
2018-07-12T00:42:26.293Z,15.50
2018-07-12T00:44:55.022Z,15.60
2018-07-12T00:47:23.646Z,15.60
2018-07-12T00:49:52.265Z,15.60
2018-07-12T00:52:20.874Z,15.60
2018-07-12T00:54:49.830Z,15.50
2018-07-12T00:57:18.446Z,15.50
2018-07-12T00:59:47.020Z,15.50
2018-07-12T01:02:16.133Z,15.50
2018-07-12T01:04:44.705Z,15.60
2018-07-12T01:07:13.277Z,15.50
2018-07-12T01:09:42.169Z,15.50
2018-07-12T01:12:10.785Z,15.50
2018-07-12T01:14:39.361Z,15.50
2018-07-12T01:17:07.925Z,15.50
2018-07-12T01:19:36.829Z,15.50
2018-07-12T01:22:05.425Z,15.50
2018-07-12T01:24:34.471Z,15.50
2018-07-12T01:27:03.041Z,15.50
2018-07-12T01:29:31.617Z,15.50
2018-07-12T01:32:00.544Z,15.50
2018-07-12T01:34:30.090Z,15.50
2018-07-12T01:36:58.661Z,15.50
2018-07-12T01:39:27.249Z,15.50
2018-07-12T01:41:56.277Z,15.50
2018-07-12T01:44:24.945Z,15.50
2018-07-12T01:46:53.530Z,15.50
2018-07-12T01:49:22.425Z,15.50
2018-07-12T01:51:50.993Z,15.40
2018-07-12T01:54:19.978Z,15.40
2018-07-12T01:56:48.765Z,15.50
2018-07-12T01:59:17.378Z,15.50
2018-07-12T02:01:46.153Z,15.50
2018-07-12T02:06:44.330Z,15.50
2018-07-12T02:09:12.908Z,15.40
2018-07-12T02:11:42.088Z,15.40
2018-07-12T02:14:10.738Z,15.40
2018-07-12T02:16:39.325Z,15.40
2018-07-12T02:19:08.369Z,15.40
2018-07-12T02:21:36.941Z,15.40
2018-07-12T02:24:05.703Z,15.40
2018-07-12T02:26:34.653Z,15.30
2018-07-12T02:29:03.239Z,15.30
2018-07-12T02:31:32.457Z,15.30
2018-07-12T02:34:01.346Z,15.30
2018-07-12T02:36:30.077Z,15.20
2018-07-12T02:38:59.153Z,15.20
2018-07-12T02:41:27.967Z,15.10
2018-07-12T02:43:56.621Z,15.10
2018-07-12T02:46:25.286Z,15.00
2018-07-12T02:48:54.434Z,15.00
2018-07-12T02:51:23.041Z,14.90
2018-07-12T02:53:51.621Z,14.90
2018-07-12T02:56:20.192Z,14.80
2018-07-12T02:58:48.793Z,14.70
2018-07-12T03:01:18.205Z,14.70
2018-07-12T03:03:46.857Z,14.60
2018-07-12T03:06:15.449Z,14.60
2018-07-12T03:08:44.674Z,14.60
2018-07-12T03:11:13.249Z,14.60
2018-07-12T03:13:41.826Z,14.50
2018-07-12T03:18:40.184Z,14.50
2018-07-12T03:21:08.829Z,14.50
2018-07-12T03:23:37.810Z,14.50
2018-07-12T03:26:06.561Z,14.40
2018-07-12T03:28:35.249Z,14.40
2018-07-12T03:31:04.294Z,14.50
2018-07-12T03:33:32.889Z,14.50
2018-07-12T03:36:01.469Z,14.50
2018-07-12T03:38:30.225Z,14.50
2018-07-12T03:40:59.092Z,14.40
2018-07-12T03:43:28.109Z,14.50
2018-07-12T03:45:56.825Z,14.50
2018-07-12T03:48:25.406Z,14.50
2018-07-12T03:50:54.409Z,14.50
2018-07-12T03:53:22.990Z,14.50
2018-07-12T03:55:51.581Z,14.50
2018-07-12T03:58:20.788Z,14.50
2018-07-12T04:00:49.385Z,14.50
2018-07-12T04:03:17.977Z,14.60
2018-07-12T04:05:47.266Z,14.60
2018-07-12T04:11:47.370Z,14.70
2018-07-12T04:14:16.120Z,14.80
2018-07-12T04:16:44.769Z,14.80
2018-07-12T04:19:13.989Z,14.80
2018-07-12T04:21:42.562Z,14.80
2018-07-12T04:24:11.335Z,14.90
2018-07-12T04:26:40.054Z,14.90
2018-07-12T04:29:08.673Z,14.90
2018-07-12T04:31:37.686Z,15.00
2018-07-12T04:34:06.273Z,15.00
2018-07-12T04:36:34.987Z,15.10
2018-07-12T04:39:04.241Z,15.30
2018-07-12T04:41:33.158Z,15.30
2018-07-12T04:44:01.873Z,15.40
2018-07-12T04:48:59.869Z,15.50
2018-07-12T04:51:28.551Z,15.50
2018-07-12T04:53:57.153Z,15.50
2018-07-12T04:56:26.089Z,15.70
2018-07-12T04:58:54.680Z,15.80
2018-07-12T05:01:23.257Z,15.80
2018-07-12T05:03:51.916Z,15.90
2018-07-12T05:06:20.601Z,16.10
2018-07-12T05:08:49.462Z,16.20
2018-07-12T05:11:21.231Z,16.30
2018-07-12T05:13:50.913Z,16.50
2018-07-12T05:16:19.820Z,16.40
2018-07-12T05:18:48.968Z,16.50
2018-07-12T05:21:17.673Z,16.60
2018-07-12T05:26:15.133Z,16.60
2018-07-12T05:28:43.816Z,16.70
2018-07-12T05:31:12.838Z,16.70
2018-07-12T05:33:41.834Z,16.80
2018-07-12T05:37:21.303Z,16.90
2018-07-12T05:39:52.013Z,16.90
2018-07-12T05:42:22.670Z,17.00
2018-07-12T05:44:52.980Z,17.10
2018-07-12T05:47:24.832Z,17.10
2018-07-12T05:49:55.629Z,17.20
2018-07-12T05:52:26.194Z,17.30
2018-07-12T05:54:57.241Z,17.50
2018-07-12T05:57:28.053Z,17.60
2018-07-12T05:59:58.726Z,17.70
2018-07-12T06:02:29.737Z,17.60
2018-07-12T06:05:00.403Z,17.70
2018-07-12T06:07:56.411Z,17.90
2018-07-12T06:10:27.262Z,18.10
2018-07-12T06:12:57.989Z,18.20
2018-07-12T06:15:28.653Z,18.10
2018-07-12T06:17:59.357Z,18.10
2018-07-12T06:20:29.960Z,18.20
2018-07-12T06:23:00.990Z,18.40
2018-07-12T06:25:31.630Z,18.40
2018-07-12T06:28:02.642Z,18.10
2018-07-12T06:30:33.313Z,18.10
2018-07-12T06:33:04.553Z,18.10
2018-07-12T06:35:35.177Z,18.20
2018-07-12T06:38:06.239Z,18.40
2018-07-12T06:40:36.829Z,18.50
2018-07-12T06:43:07.363Z,18.60
2018-07-12T06:45:37.942Z,18.70
2018-07-12T06:48:11.762Z,18.70
2018-07-12T06:53:13.091Z,18.60
2018-07-12T06:55:44.095Z,18.50
2018-07-12T06:58:14.725Z,18.50
2018-07-12T07:00:45.357Z,18.60
2018-07-12T07:03:16.430Z,18.70
2018-07-12T07:05:48.310Z,18.70
2018-07-12T07:08:20.867Z,18.70
2018-07-12T07:10:51.398Z,18.90
2018-07-12T07:13:21.971Z,18.90
2018-07-12T07:15:52.638Z,19.00
2018-07-12T07:18:24.234Z,19.10
2018-07-12T07:21:12.181Z,19.10
2018-07-12T07:23:45.181Z,19.20
2018-07-12T07:26:16.205Z,19.30
2018-07-12T07:28:46.915Z,19.40
2018-07-12T07:31:17.503Z,19.50
2018-07-12T07:33:48.032Z,19.60
2018-07-12T07:36:20.099Z,19.70
2018-07-12T07:38:50.634Z,19.90
2018-07-12T07:41:21.286Z,20.00
2018-07-12T07:43:52.627Z,20.20
2018-07-12T07:46:23.372Z,20.30
2018-07-12T07:48:54.405Z,20.40
2018-07-12T07:51:25.622Z,20.50
2018-07-12T07:53:56.458Z,20.60
2018-07-12T07:56:27.154Z,20.60
2018-07-12T07:58:58.006Z,20.70
2018-07-12T08:04:00.607Z,20.70
2018-07-12T08:09:01.474Z,20.80
2018-07-12T08:11:32.681Z,21.00
2018-07-12T08:14:03.587Z,21.10
2018-07-12T08:16:34.721Z,21.10
2018-07-12T08:19:05.429Z,21.20
2018-07-12T08:21:35.937Z,21.30
2018-07-12T08:24:06.736Z,21.40
2018-07-12T08:26:37.566Z,21.50
2018-07-12T08:29:10.523Z,21.60
2018-07-12T08:31:41.353Z,21.70
2018-07-12T08:34:13.286Z,21.80
2018-07-12T08:36:44.193Z,21.90
2018-07-12T08:39:15.001Z,21.90
2018-07-12T08:41:46.274Z,22.00
2018-07-12T08:44:16.803Z,22.10
2018-07-12T08:46:48.060Z,22.20
2018-07-12T08:49:19.377Z,22.30
2018-07-12T08:51:50.097Z,22.40
2018-07-12T08:54:26.979Z,22.40
2018-07-12T08:57:03.661Z,22.40
2018-07-12T08:59:34.546Z,22.60
2018-07-12T09:02:05.105Z,22.60
2018-07-12T09:04:36.086Z,22.70
2018-07-12T09:07:06.643Z,22.90
2018-07-12T09:09:37.141Z,23.00
2018-07-12T09:12:08.169Z,23.20
2018-07-12T09:14:39.925Z,23.20
2018-07-12T09:17:10.729Z,23.30
2018-07-12T09:19:41.824Z,23.40
2018-07-12T09:22:12.536Z,23.60
2018-07-12T09:24:43.433Z,23.60
2018-07-12T09:27:14.313Z,23.60
2018-07-12T09:29:45.010Z,23.50
2018-07-12T09:32:15.688Z,23.60
2018-07-12T09:34:46.452Z,23.60
2018-07-12T09:37:17.106Z,23.80
2018-07-12T09:39:47.749Z,23.90
2018-07-12T09:42:18.313Z,24.00
2018-07-12T09:44:49.305Z,24.00
2018-07-12T09:47:20.365Z,24.20
2018-07-12T09:49:51.293Z,24.40
2018-07-12T09:52:26.833Z,24.60
2018-07-12T09:54:58.185Z,24.70
2018-07-12T09:57:39.442Z,24.80
2018-07-12T10:00:10.047Z,24.80
2018-07-12T10:02:46.165Z,25.00
2018-07-12T10:07:28.610Z,25.20
2018-07-12T10:10:00.731Z,25.10
2018-07-12T10:12:41.501Z,25.30
2018-07-12T10:15:12.904Z,25.50
2018-07-12T10:17:52.188Z,25.70
2018-07-12T10:20:22.865Z,25.70
2018-07-12T10:22:56.018Z,25.80
2018-07-12T10:25:30.467Z,25.70
2018-07-12T10:28:02.789Z,26.10
2018-07-12T10:30:33.277Z,25.80
2018-07-12T10:33:05.198Z,26.10
2018-07-12T10:35:38.089Z,26.50
2018-07-12T10:38:10.683Z,26.70
2018-07-12T10:40:50.031Z,27.10
2018-07-12T10:43:21.993Z,27.30
2018-07-12T10:45:55.081Z,26.70
2018-07-12T10:48:26.147Z,26.50
2018-07-12T10:50:56.825Z,26.70
2018-07-12T10:53:27.863Z,26.80
2018-07-12T10:55:58.389Z,27.20
2018-07-12T10:58:29.000Z,27.60
2018-07-12T11:00:59.890Z,28.00
2018-07-12T11:03:30.557Z,27.40
2018-07-12T11:06:01.106Z,27.20
2018-07-12T11:08:31.723Z,27.20
2018-07-12T11:11:02.273Z,27.50
2018-07-12T11:13:43.852Z,28.10
2018-07-12T11:16:14.457Z,28.40
2018-07-12T11:18:44.989Z,28.30
2018-07-12T11:21:16.211Z,28.50
2018-07-12T11:23:48.868Z,28.40
2018-07-12T11:26:20.157Z,28.10
2018-07-12T11:28:51.213Z,27.50
2018-07-12T11:31:21.873Z,27.20
2018-07-12T11:33:52.983Z,26.90
2018-07-12T11:36:23.627Z,26.60
2018-07-12T11:38:54.710Z,26.10
2018-07-12T11:41:25.274Z,26.00
2018-07-12T11:48:57.890Z,25.20
2018-07-12T11:51:30.667Z,25.00
2018-07-12T11:54:01.440Z,24.80
2018-07-12T11:59:02.561Z,24.60
2018-07-12T12:01:33.184Z,24.50
2018-07-12T12:04:03.932Z,24.60
2018-07-12T12:06:34.495Z,24.80
2018-07-12T12:09:05.556Z,25.10
2018-07-12T12:11:36.098Z,25.30
2018-07-12T12:14:06.747Z,25.70
2018-07-12T12:16:37.370Z,26.00
2018-07-12T12:19:08.244Z,26.40
2018-07-12T12:21:40.240Z,26.70
2018-07-12T12:24:11.048Z,27.20
2018-07-12T12:26:41.757Z,27.20
2018-07-12T12:29:12.816Z,27.40
2018-07-12T12:31:44.932Z,27.20
2018-07-12T12:34:15.629Z,27.10
2018-07-12T12:36:48.793Z,27.20
2018-07-12T12:39:20.034Z,27.40
2018-07-12T12:41:51.447Z,27.30
2018-07-12T12:44:22.311Z,27.00
2018-07-12T12:46:52.896Z,26.90
2018-07-12T12:49:24.554Z,26.80
2018-07-12T12:51:55.390Z,26.80
2018-07-12T12:54:28.644Z,26.40
2018-07-12T12:56:59.240Z,26.00
2018-07-12T12:59:31.050Z,25.70
2018-07-12T13:02:01.626Z,25.60
2018-07-12T13:04:32.280Z,25.40
2018-07-12T13:07:03.099Z,25.50
2018-07-12T13:09:34.208Z,25.70
2018-07-12T13:12:04.743Z,25.50
2018-07-12T13:14:35.426Z,25.40
2018-07-12T13:17:06.701Z,26.10
2018-07-12T13:19:37.342Z,26.70
2018-07-12T13:22:07.837Z,26.40
2018-07-12T13:24:38.732Z,26.40
2018-07-12T13:27:09.421Z,26.30
2018-07-12T13:29:40.207Z,26.40
2018-07-12T13:32:11.270Z,26.10
2018-07-12T13:34:42.255Z,25.70
2018-07-12T13:37:13.006Z,25.60
2018-07-12T13:39:43.950Z,25.20
2018-07-12T13:42:14.522Z,25.20
2018-07-12T13:44:45.342Z,25.10
2018-07-12T13:47:16.598Z,24.70
2018-07-12T13:49:47.457Z,24.80
2018-07-12T13:52:19.808Z,24.70
2018-07-12T13:54:52.668Z,24.80
2018-07-12T13:57:24.746Z,24.80
2018-07-12T13:59:59.817Z,24.90
2018-07-12T14:02:31.008Z,25.40
2018-07-12T14:05:01.607Z,26.60
2018-07-12T14:07:32.686Z,26.20
2018-07-12T14:10:04.228Z,25.80
2018-07-12T14:12:34.876Z,25.50
2018-07-12T14:15:05.993Z,25.20
2018-07-12T14:17:36.598Z,24.90
2018-07-12T14:20:07.351Z,24.80
2018-07-12T14:22:38.437Z,24.60
2018-07-12T14:25:09.601Z,24.30
2018-07-12T14:27:40.493Z,24.30
2018-07-12T14:30:11.950Z,25.70
2018-07-12T14:32:43.611Z,27.10
2018-07-12T14:35:16.943Z,28.20
2018-07-12T14:37:47.779Z,29.00
2018-07-12T14:40:22.153Z,29.70
2018-07-12T14:42:58.240Z,30.00
2018-07-12T14:45:30.366Z,29.60
2018-07-12T14:48:01.452Z,29.50
2018-07-12T14:50:32.070Z,28.60
2018-07-12T14:53:03.616Z,28.50
2018-07-12T14:55:35.396Z,28.70
2018-07-12T14:58:06.121Z,29.10
2018-07-12T15:00:38.122Z,29.50
2018-07-12T15:03:09.823Z,29.90
2018-07-12T15:05:42.396Z,30.30
2018-07-12T15:08:15.474Z,29.40
2018-07-12T15:10:48.728Z,27.80
2018-07-12T15:13:19.351Z,27.00
2018-07-12T15:15:51.291Z,26.60
2018-07-12T15:18:22.069Z,25.90
2018-07-12T15:20:54.707Z,25.20
2018-07-12T15:23:27.641Z,25.00
2018-07-12T15:26:00.227Z,25.20
2018-07-12T15:28:31.501Z,25.10
2018-07-12T15:31:02.146Z,24.80
2018-07-12T15:33:33.295Z,24.50
2018-07-12T15:37:06.672Z,24.40
2018-07-12T15:39:37.912Z,24.30
2018-07-12T15:42:09.730Z,24.10
2018-07-12T15:44:42.264Z,23.80
2018-07-12T15:47:13.125Z,23.70
2018-07-12T15:49:44.872Z,23.50
2018-07-12T15:52:15.809Z,23.40
2018-07-12T15:54:48.035Z,23.40
2018-07-12T15:57:19.564Z,23.40
2018-07-12T15:59:51.389Z,23.40
2018-07-12T16:02:22.767Z,23.40
2018-07-12T16:04:53.385Z,23.30
2018-07-12T16:07:24.388Z,23.30
2018-07-12T16:09:55.386Z,23.20
2018-07-12T16:12:27.694Z,23.20
2018-07-12T16:14:58.365Z,23.30
2018-07-12T16:17:28.909Z,23.20
2018-07-12T16:20:00.659Z,23.30
2018-07-12T16:22:31.864Z,23.70
2018-07-12T16:25:02.582Z,24.10
2018-07-12T16:27:33.959Z,24.20
2018-07-12T16:30:06.351Z,24.00
2018-07-12T16:32:37.119Z,23.90
2018-07-12T16:35:07.696Z,25.00
2018-07-12T16:37:43.166Z,26.10
2018-07-12T16:40:14.406Z,27.20
2018-07-12T16:42:47.293Z,27.80
2018-07-12T16:45:20.079Z,28.20
2018-07-12T16:47:50.827Z,28.40
2018-07-12T16:50:22.332Z,28.80
2018-07-12T16:52:53.117Z,28.80
2018-07-12T16:55:23.829Z,28.20
2018-07-12T16:57:54.719Z,28.10
2018-07-12T17:00:25.346Z,28.40
2018-07-12T17:02:56.769Z,28.80
2018-07-12T17:05:27.303Z,29.20
2018-07-12T17:07:58.141Z,28.10
2018-07-12T17:10:29.781Z,28.00
2018-07-12T17:13:01.538Z,27.60
2018-07-12T17:15:37.677Z,27.20
2018-07-12T17:18:09.256Z,27.20
2018-07-12T17:20:40.124Z,27.30
2018-07-12T17:23:11.653Z,28.00
2018-07-12T17:25:42.920Z,27.90
2018-07-12T17:28:14.089Z,27.60
2018-07-12T17:30:45.507Z,27.40
2018-07-12T17:33:20.279Z,27.30
2018-07-12T17:35:57.628Z,27.20
2018-07-12T17:38:29.352Z,26.80
2018-07-12T17:43:34.393Z,26.50
2018-07-12T17:46:05.109Z,26.50
2018-07-12T17:48:36.885Z,26.30
2018-07-12T17:51:07.486Z,26.30
2018-07-12T17:53:38.313Z,26.70
2018-07-12T17:56:08.933Z,27.40
2018-07-12T17:58:40.021Z,27.10
2018-07-12T18:01:10.634Z,26.60
2018-07-12T18:03:42.798Z,26.20
2018-07-12T18:06:13.942Z,26.10
2018-07-12T18:08:45.596Z,26.00
2018-07-12T18:11:16.680Z,26.00
2018-07-12T18:13:47.706Z,25.30
2018-07-12T18:16:18.295Z,24.80
2018-07-12T18:18:49.156Z,24.50
2018-07-12T18:21:19.678Z,23.90
2018-07-12T18:23:51.305Z,23.50
2018-07-12T18:26:21.854Z,23.50
2018-07-12T18:28:53.388Z,23.80
2018-07-12T18:31:24.065Z,23.50
2018-07-12T18:33:55.537Z,23.00
2018-07-12T18:36:26.133Z,22.70
2018-07-12T18:38:56.677Z,22.40
2018-07-12T18:41:28.113Z,22.70
2018-07-12T18:43:59.672Z,22.70
2018-07-12T18:46:33.218Z,22.20
2018-07-12T18:49:05.538Z,22.20
2018-07-12T18:51:37.782Z,22.00
2018-07-12T18:54:08.525Z,21.70
2018-07-12T18:56:39.683Z,21.50
2018-07-12T18:59:12.561Z,20.90
2018-07-12T19:01:45.661Z,20.60
2018-07-12T19:04:22.646Z,20.60
2018-07-12T19:06:55.469Z,20.40
2018-07-12T19:09:41.358Z,20.50
2018-07-12T19:12:12.393Z,20.30
2018-07-12T19:14:43.768Z,19.90
2018-07-12T19:17:14.314Z,19.60
2018-07-12T19:19:45.353Z,19.30
2018-07-12T19:22:15.910Z,19.20
2018-07-12T19:24:46.990Z,19.10
2018-07-12T19:27:17.607Z,18.80
2018-07-12T19:29:48.351Z,18.40
2018-07-12T19:32:18.876Z,18.10
2018-07-12T19:34:49.794Z,17.90
2018-07-12T19:37:20.726Z,17.70
2018-07-12T19:39:51.298Z,17.60
2018-07-12T19:42:21.833Z,17.50
2018-07-12T19:44:52.553Z,17.40
2018-07-12T19:47:23.229Z,17.30
2018-07-12T19:49:54.244Z,17.20
2018-07-12T19:52:25.104Z,17.10
2018-07-12T19:54:56.816Z,17.10
2018-07-12T19:57:27.413Z,17.10
2018-07-12T19:59:58.292Z,17.00
2018-07-12T20:02:32.592Z,16.90
2018-07-12T20:05:03.377Z,16.80
2018-07-12T20:07:33.957Z,16.70
2018-07-12T20:10:05.300Z,16.70
2018-07-12T20:12:35.835Z,16.60
2018-07-12T20:15:06.677Z,16.60
2018-07-12T20:17:37.274Z,16.50
2018-07-12T20:20:08.968Z,16.50
2018-07-12T20:22:40.222Z,16.50
2018-07-12T20:25:11.271Z,16.50
2018-07-12T20:27:42.853Z,16.50
2018-07-12T20:30:14.785Z,16.40
2018-07-12T20:35:17.875Z,16.30
2018-07-12T20:37:50.400Z,16.30
2018-07-12T20:40:23.181Z,16.20
2018-07-12T20:42:53.817Z,16.20
2018-07-12T20:45:24.557Z,16.10
2018-07-12T20:47:55.526Z,16.10
2018-07-12T20:50:26.285Z,16.10
2018-07-12T20:52:56.833Z,16.10
2018-07-12T20:55:28.587Z,16.00
2018-07-12T20:57:59.821Z,16.00
2018-07-12T21:00:30.970Z,16.00
2018-07-12T21:03:02.075Z,16.00
2018-07-12T21:05:32.676Z,15.90
2018-07-12T21:08:03.307Z,15.90
2018-07-12T21:10:34.482Z,15.90
2018-07-12T21:13:05.085Z,15.90
2018-07-12T21:15:35.726Z,16.00
2018-07-12T21:18:06.822Z,16.00
2018-07-12T21:20:37.557Z,16.00
2018-07-12T21:23:08.659Z,16.10
2018-07-12T21:25:40.018Z,16.10
2018-07-12T21:28:10.586Z,16.10
2018-07-12T21:30:41.125Z,16.10
2018-07-12T21:33:12.150Z,16.00
2018-07-12T21:35:42.781Z,16.00
2018-07-12T21:38:13.334Z,16.00
2018-07-12T21:40:44.473Z,16.00
2018-07-12T21:43:14.981Z,16.00
2018-07-12T21:45:45.853Z,16.00
2018-07-12T21:48:16.806Z,16.00
2018-07-12T21:50:47.684Z,16.00
2018-07-12T21:53:18.503Z,16.00
2018-07-12T21:55:49.665Z,15.90
2018-07-12T21:58:20.257Z,15.90
2018-07-12T22:00:50.936Z,15.90
2018-07-12T22:03:22.230Z,15.90
2018-07-12T22:05:52.972Z,15.90
2018-07-12T22:08:24.665Z,15.90
2018-07-12T22:10:57.362Z,15.90
2018-07-12T22:13:28.913Z,15.90
2018-07-12T22:15:59.553Z,15.90
2018-07-12T22:18:30.532Z,15.90
2018-07-12T22:21:01.465Z,16.00
2018-07-12T22:23:32.029Z,15.90
2018-07-12T22:26:03.252Z,15.90
2018-07-12T22:28:33.817Z,15.90
2018-07-12T22:31:04.385Z,15.90
2018-07-12T22:33:35.425Z,15.80
2018-07-12T22:36:06.233Z,15.80
2018-07-12T22:38:36.837Z,15.80
2018-07-12T22:41:07.980Z,15.80
2018-07-12T22:43:38.526Z,15.80
2018-07-12T22:46:09.392Z,15.80
2018-07-12T22:48:40.559Z,15.90
2018-07-12T22:51:11.338Z,15.90
2018-07-12T22:53:41.904Z,15.90
2018-07-12T22:56:12.993Z,15.90
2018-07-12T22:58:43.715Z,15.80
2018-07-12T23:01:14.385Z,15.80
2018-07-12T23:03:46.369Z,15.80
2018-07-12T23:06:16.926Z,15.80
2018-07-12T23:08:49.800Z,15.80
2018-07-12T23:11:20.825Z,15.80
2018-07-12T23:13:51.401Z,15.80
2018-07-12T23:16:22.337Z,15.90
2018-07-12T23:21:23.705Z,15.80
2018-07-12T23:23:54.281Z,15.90
2018-07-12T23:26:25.485Z,15.90
2018-07-12T23:28:56.009Z,15.90
2018-07-12T23:31:26.573Z,15.90
2018-07-12T23:33:57.533Z,15.80
2018-07-12T23:36:28.057Z,15.80
2018-07-12T23:38:58.714Z,15.80
2018-07-12T23:41:30.126Z,15.80
2018-07-12T23:44:00.676Z,15.80
2018-07-12T23:46:31.662Z,15.80
2018-07-12T23:49:02.861Z,15.80
2018-07-12T23:51:34.003Z,15.70
2018-07-12T23:54:04.701Z,15.70
2018-07-12T23:56:35.849Z,15.70
2018-07-12T23:59:06.513Z,15.80
